AUA813 LOWW-LGIR
Flight info
| Callsign | AUA813 |
|---|---|
| Flight time | 2h 4m |
| Altitude | 37000 |
| Route | ARSIN DCT NALOX DCT BABIT DCT OKTAS DCT REDVA UL616 KOGAT DCT TALAS UM749 ELPIS DCT KEA UL607 GIVIS T514 XAVIS |
| Aircraft | A320/M-SDE3FGHIRWY/LB1 |
Departure
| Time | 2026-05-05 09:48 |
|---|---|
| Airport | Vienna International Airport (LOWW) |
Arrival
| Time | 2026-05-05 11:53 |
|---|---|
| Airport | Heraklion International Nikos Kazantzakis Airport (LGIR) |
| Time | Latitude | Longitude | Altitude | Speed | Heading |
|---|---|---|---|---|---|
| 2026-05-05 09:19 | 48.11408 | 16.57188 | 611 ft | 0 kts | 205° |
| 2026-05-05 09:42 | 48.11405 | 16.57186 | 636 ft | 0 kts | 205° |
| 2026-05-05 09:42 | 48.11387 | 16.57173 | 623 ft | 4 kts | 205° |
| 2026-05-05 09:43 | 48.11350 | 16.57159 | 614 ft | 6 kts | 168° |
| 2026-05-05 09:43 | 48.11319 | 16.57221 | 609 ft | 10 kts | 115° |
| 2026-05-05 09:43 | 48.11310 | 16.57325 | 609 ft | 11 kts | 54° |
| 2026-05-05 09:43 | 48.11374 | 16.57374 | 609 ft | 10 kts | 25° |
| 2026-05-05 09:44 | 48.11445 | 16.57426 | 609 ft | 11 kts | 26° |
| 2026-05-05 09:44 | 48.11512 | 16.57476 | 615 ft | 10 kts | 27° |
| 2026-05-05 09:44 | 48.11571 | 16.57525 | 614 ft | 10 kts | 30° |
| 2026-05-05 09:44 | 48.11643 | 16.57539 | 610 ft | 10 kts | 344° |
| 2026-05-05 09:45 | 48.11721 | 16.57508 | 618 ft | 11 kts | 345° |
| 2026-05-05 09:45 | 48.11798 | 16.57475 | 609 ft | 12 kts | 343° |
| 2026-05-05 09:45 | 48.11871 | 16.57443 | 621 ft | 12 kts | 343° |
| 2026-05-05 09:45 | 48.11947 | 16.57411 | 617 ft | 10 kts | 345° |
| 2026-05-05 09:46 | 48.12007 | 16.57422 | 616 ft | 8 kts | 51° |
| 2026-05-05 09:46 | 48.12012 | 16.57495 | 608 ft | 7 kts | 104° |
| 2026-05-05 09:46 | 48.12000 | 16.57574 | 614 ft | 9 kts | 102° |
| 2026-05-05 09:46 | 48.11985 | 16.57667 | 613 ft | 10 kts | 104° |
| 2026-05-05 09:47 | 48.11967 | 16.57771 | 614 ft | 11 kts | 104° |
| 2026-05-05 09:47 | 48.11930 | 16.57838 | 609 ft | 9 kts | 164° |
| 2026-05-05 09:47 | 48.11916 | 16.57844 | 623 ft | 1 kts | 163° |
| 2026-05-05 09:47 | 48.11844 | 16.57876 | 613 ft | 37 kts | 163° |
| 2026-05-05 09:48 | 48.11370 | 16.58075 | 620 ft | 101 kts | 164° |
| 2026-05-05 09:48 | 48.10517 | 16.58436 | 618 ft | 152 kts | 164° |
| 2026-05-05 09:48 | 48.09414 | 16.58901 | 928 ft | 167 kts | 165° |
| 2026-05-05 09:48 | 48.08293 | 16.59379 | 1669 ft | 166 kts | 166° |
| 2026-05-05 09:49 | 48.07186 | 16.59849 | 2383 ft | 166 kts | 167° |
| 2026-05-05 09:49 | 48.06013 | 16.60343 | 2736 ft | 186 kts | 168° |
| 2026-05-05 09:49 | 48.04694 | 16.60893 | 3034 ft | 207 kts | 169° |
| 2026-05-05 09:49 | 48.03226 | 16.61504 | 3330 ft | 231 kts | 169° |
| 2026-05-05 09:50 | 48.01616 | 16.62178 | 3867 ft | 246 kts | 168° |
| 2026-05-05 09:50 | 47.99947 | 16.62883 | 4616 ft | 253 kts | 168° |
| 2026-05-05 09:50 | 47.98221 | 16.63390 | 4896 ft | 251 kts | 181° |
| 2026-05-05 09:50 | 47.96466 | 16.63315 | 5253 ft | 255 kts | 184° |
| 2026-05-05 09:51 | 47.94698 | 16.63205 | 6169 ft | 254 kts | 184° |
| 2026-05-05 09:51 | 47.93034 | 16.63096 | 6944 ft | 256 kts | 184° |
| 2026-05-05 09:51 | 47.91168 | 16.62972 | 7780 ft | 259 kts | 184° |
| 2026-05-05 09:51 | 47.89358 | 16.62856 | 8594 ft | 261 kts | 183° |
| 2026-05-05 09:52 | 47.87535 | 16.62741 | 9383 ft | 265 kts | 183° |
| 2026-05-05 09:52 | 47.85678 | 16.62626 | 10117 ft | 269 kts | 183° |
| 2026-05-05 09:52 | 47.83733 | 16.62505 | 10379 ft | 291 kts | 183° |
| 2026-05-05 09:52 | 47.81631 | 16.62373 | 10574 ft | 313 kts | 183° |
| 2026-05-05 09:53 | 47.79420 | 16.62235 | 11110 ft | 320 kts | 183° |
| 2026-05-05 09:53 | 47.77175 | 16.62181 | 11760 ft | 326 kts | 177° |
| 2026-05-05 09:53 | 47.74929 | 16.62765 | 12442 ft | 331 kts | 165° |
| 2026-05-05 09:53 | 47.72810 | 16.64051 | 13110 ft | 337 kts | 157° |
| 2026-05-05 09:54 | 47.70689 | 16.65564 | 13780 ft | 340 kts | 157° |
| 2026-05-05 09:54 | 47.68543 | 16.67080 | 14360 ft | 343 kts | 158° |
| 2026-05-05 09:54 | 47.66372 | 16.68604 | 14910 ft | 348 kts | 158° |
| 2026-05-05 09:54 | 47.64168 | 16.70146 | 15425 ft | 353 kts | 157° |
| 2026-05-05 09:55 | 47.61931 | 16.71711 | 15965 ft | 358 kts | 157° |
| 2026-05-05 09:55 | 47.59668 | 16.73297 | 16497 ft | 362 kts | 158° |
| 2026-05-05 09:55 | 47.57348 | 16.74723 | 17192 ft | 357 kts | 167° |
| 2026-05-05 09:55 | 47.54905 | 16.75528 | 17588 ft | 364 kts | 177° |
| 2026-05-05 09:56 | 47.52377 | 16.75775 | 18147 ft | 366 kts | 178° |
| 2026-05-05 09:56 | 47.49811 | 16.75996 | 18531 ft | 373 kts | 178° |
| 2026-05-05 09:56 | 47.47204 | 16.76241 | 18942 ft | 378 kts | 178° |
| 2026-05-05 09:56 | 47.44571 | 16.76503 | 19490 ft | 379 kts | 178° |
| 2026-05-05 09:57 | 47.41936 | 16.76764 | 20028 ft | 381 kts | 177° |
| 2026-05-05 09:57 | 47.40177 | 16.76935 | 20257 ft | 385 kts | 178° |
| 2026-05-05 09:57 | 47.37482 | 16.77197 | 20708 ft | 389 kts | 180° |
| 2026-05-05 09:57 | 47.34773 | 16.77458 | 21210 ft | 392 kts | 179° |
| 2026-05-05 09:58 | 47.32041 | 16.77718 | 21655 ft | 396 kts | 178° |
| 2026-05-05 09:58 | 47.29274 | 16.77984 | 22083 ft | 399 kts | 179° |
| 2026-05-05 09:58 | 47.26495 | 16.78250 | 22527 ft | 403 kts | 178° |
| 2026-05-05 09:58 | 47.23692 | 16.78519 | 23022 ft | 404 kts | 178° |
| 2026-05-05 09:59 | 47.20872 | 16.78787 | 23414 ft | 408 kts | 179° |
| 2026-05-05 09:59 | 47.18037 | 16.79053 | 23779 ft | 410 kts | 178° |
| 2026-05-05 09:59 | 47.15172 | 16.79322 | 24096 ft | 414 kts | 179° |
| 2026-05-05 09:59 | 47.12291 | 16.79592 | 24462 ft | 416 kts | 179° |
| 2026-05-05 10:00 | 47.09397 | 16.79864 | 24786 ft | 418 kts | 179° |
| 2026-05-05 10:00 | 47.06484 | 16.80140 | 25106 ft | 421 kts | 179° |
| 2026-05-05 10:00 | 47.03556 | 16.80420 | 25439 ft | 423 kts | 178° |
| 2026-05-05 10:00 | 47.00608 | 16.80703 | 25748 ft | 426 kts | 178° |
| 2026-05-05 10:01 | 46.97648 | 16.80989 | 26079 ft | 428 kts | 179° |
| 2026-05-05 10:01 | 46.94665 | 16.81279 | 26337 ft | 432 kts | 178° |
| 2026-05-05 10:01 | 46.91686 | 16.82047 | 26618 ft | 439 kts | 166° |
| 2026-05-05 10:01 | 46.88824 | 16.83680 | 26921 ft | 445 kts | 155° |
| 2026-05-05 10:02 | 46.86207 | 16.86148 | 27215 ft | 451 kts | 143° |
| 2026-05-05 10:02 | 46.83952 | 16.89368 | 27510 ft | 457 kts | 131° |
| 2026-05-05 10:02 | 46.82165 | 16.93154 | 27789 ft | 461 kts | 123° |
| 2026-05-05 10:02 | 46.80451 | 16.97187 | 28134 ft | 461 kts | 124° |
| 2026-05-05 10:03 | 46.78765 | 17.01117 | 28391 ft | 464 kts | 123° |
| 2026-05-05 10:03 | 46.77038 | 17.05116 | 28621 ft | 468 kts | 124° |
| 2026-05-05 10:03 | 46.75300 | 17.09131 | 28912 ft | 469 kts | 124° |
| 2026-05-05 10:03 | 46.73532 | 17.13206 | 29178 ft | 470 kts | 124° |
| 2026-05-05 10:04 | 46.71783 | 17.17241 | 29427 ft | 472 kts | 123° |
| 2026-05-05 10:04 | 46.70026 | 17.21294 | 29634 ft | 474 kts | 123° |
| 2026-05-05 10:04 | 46.68257 | 17.25370 | 29793 ft | 478 kts | 123° |
| 2026-05-05 10:04 | 46.66504 | 17.29411 | 30024 ft | 478 kts | 123° |
| 2026-05-05 10:05 | 46.64702 | 17.33551 | 30293 ft | 478 kts | 124° |
| 2026-05-05 10:05 | 46.62947 | 17.37567 | 30570 ft | 476 kts | 124° |
| 2026-05-05 10:05 | 46.61169 | 17.41629 | 30850 ft | 475 kts | 124° |
| 2026-05-05 10:05 | 46.59398 | 17.45675 | 31132 ft | 474 kts | 123° |
| 2026-05-05 10:06 | 46.57630 | 17.49716 | 31421 ft | 472 kts | 124° |
| 2026-05-05 10:06 | 46.55868 | 17.53738 | 31705 ft | 472 kts | 124° |
| 2026-05-05 10:06 | 46.54105 | 17.57748 | 31971 ft | 471 kts | 124° |
| 2026-05-05 10:06 | 46.52341 | 17.61757 | 32249 ft | 469 kts | 124° |
| 2026-05-05 10:07 | 46.50590 | 17.65729 | 32635 ft | 465 kts | 124° |
| 2026-05-05 10:07 | 46.48851 | 17.69671 | 32966 ft | 463 kts | 124° |
| 2026-05-05 10:07 | 46.47113 | 17.73606 | 33224 ft | 463 kts | 124° |
| 2026-05-05 10:07 | 46.45373 | 17.77534 | 33451 ft | 463 kts | 124° |
| 2026-05-05 10:08 | 46.43632 | 17.81453 | 33725 ft | 462 kts | 124° |
| 2026-05-05 10:08 | 46.41891 | 17.85357 | 34007 ft | 461 kts | 124° |
| 2026-05-05 10:08 | 46.40153 | 17.89258 | 34211 ft | 461 kts | 124° |
| 2026-05-05 10:08 | 46.38419 | 17.93156 | 34408 ft | 461 kts | 124° |
| 2026-05-05 10:09 | 46.36683 | 17.97057 | 34608 ft | 461 kts | 124° |
| 2026-05-05 10:09 | 46.34943 | 18.00951 | 34797 ft | 461 kts | 124° |
| 2026-05-05 10:09 | 46.33203 | 18.04840 | 35005 ft | 460 kts | 124° |
| 2026-05-05 10:09 | 46.31459 | 18.08730 | 35194 ft | 460 kts | 124° |
| 2026-05-05 10:10 | 46.29713 | 18.12613 | 35372 ft | 461 kts | 124° |
| 2026-05-05 10:10 | 46.27967 | 18.16494 | 35560 ft | 460 kts | 124° |
| 2026-05-05 10:10 | 46.26225 | 18.20369 | 35745 ft | 460 kts | 124° |
| 2026-05-05 10:10 | 46.24484 | 18.24247 | 35920 ft | 460 kts | 124° |
| 2026-05-05 10:11 | 46.22744 | 18.28120 | 36084 ft | 460 kts | 124° |
| 2026-05-05 10:11 | 46.21000 | 18.31990 | 36257 ft | 459 kts | 124° |
| 2026-05-05 10:11 | 46.19255 | 18.35850 | 36417 ft | 459 kts | 124° |
| 2026-05-05 10:11 | 46.17507 | 18.39707 | 36566 ft | 459 kts | 124° |
| 2026-05-05 10:12 | 46.15758 | 18.43558 | 36708 ft | 459 kts | 124° |
| 2026-05-05 10:12 | 46.14007 | 18.47407 | 36863 ft | 459 kts | 124° |
| 2026-05-05 10:12 | 46.12256 | 18.51253 | 36997 ft | 459 kts | 124° |
| 2026-05-05 10:12 | 46.10506 | 18.55097 | 37020 ft | 459 kts | 124° |
| 2026-05-05 10:13 | 46.06996 | 18.62790 | 37013 ft | 459 kts | 124° |
| 2026-05-05 10:13 | 46.03481 | 18.70474 | 37009 ft | 460 kts | 124° |
| 2026-05-05 10:14 | 45.99958 | 18.78165 | 37012 ft | 460 kts | 124° |
| 2026-05-05 10:14 | 45.96422 | 18.85841 | 37019 ft | 461 kts | 124° |
| 2026-05-05 10:15 | 45.92247 | 18.92728 | 37009 ft | 457 kts | 142° |
| 2026-05-05 10:15 | 45.86891 | 18.97512 | 37005 ft | 453 kts | 155° |
| 2026-05-05 10:16 | 45.81267 | 19.01634 | 37005 ft | 454 kts | 155° |
| 2026-05-05 10:16 | 45.75642 | 19.05774 | 37000 ft | 455 kts | 155° |
| 2026-05-05 10:17 | 45.70008 | 19.09904 | 37003 ft | 455 kts | 155° |
| 2026-05-05 10:17 | 45.64360 | 19.14026 | 37013 ft | 456 kts | 155° |
| 2026-05-05 10:18 | 45.58701 | 19.18144 | 37009 ft | 457 kts | 155° |
| 2026-05-05 10:18 | 45.53028 | 19.22259 | 36996 ft | 458 kts | 155° |
| 2026-05-05 10:19 | 45.47388 | 19.26343 | 37001 ft | 458 kts | 155° |
| 2026-05-05 10:19 | 45.41708 | 19.30455 | 37007 ft | 458 kts | 155° |
| 2026-05-05 10:20 | 45.36023 | 19.34568 | 37011 ft | 458 kts | 155° |
| 2026-05-05 10:20 | 45.30331 | 19.38666 | 37022 ft | 459 kts | 155° |
| 2026-05-05 10:21 | 45.24633 | 19.42757 | 37012 ft | 459 kts | 155° |
| 2026-05-05 10:21 | 45.18928 | 19.46852 | 37016 ft | 460 kts | 155° |
| 2026-05-05 10:22 | 45.13212 | 19.50938 | 37023 ft | 460 kts | 155° |
| 2026-05-05 10:22 | 45.07489 | 19.55018 | 37022 ft | 461 kts | 155° |
| 2026-05-05 10:23 | 45.01763 | 19.59092 | 37023 ft | 461 kts | 155° |
| 2026-05-05 10:23 | 44.96030 | 19.63163 | 37022 ft | 461 kts | 155° |
| 2026-05-05 10:24 | 44.90252 | 19.67103 | 37024 ft | 460 kts | 162° |
| 2026-05-05 10:24 | 44.84230 | 19.70120 | 37028 ft | 459 kts | 163° |
| 2026-05-05 10:25 | 44.78200 | 19.73128 | 37028 ft | 460 kts | 162° |
| 2026-05-05 10:25 | 44.72160 | 19.76137 | 37023 ft | 461 kts | 163° |
| 2026-05-05 10:26 | 44.66112 | 19.79142 | 37024 ft | 461 kts | 163° |
| 2026-05-05 10:26 | 44.60054 | 19.82152 | 37019 ft | 462 kts | 163° |
| 2026-05-05 10:27 | 44.54033 | 19.85133 | 37018 ft | 462 kts | 163° |
| 2026-05-05 10:27 | 44.47959 | 19.88125 | 37022 ft | 463 kts | 163° |
| 2026-05-05 10:28 | 44.41880 | 19.91117 | 37028 ft | 463 kts | 163° |
| 2026-05-05 10:28 | 44.35791 | 19.94109 | 37017 ft | 464 kts | 163° |
| 2026-05-05 10:29 | 44.29691 | 19.97100 | 37030 ft | 465 kts | 163° |
| 2026-05-05 10:29 | 44.23581 | 20.00093 | 37033 ft | 466 kts | 163° |
| 2026-05-05 10:30 | 44.17464 | 20.03078 | 37028 ft | 466 kts | 163° |
| 2026-05-05 10:30 | 44.11345 | 20.06065 | 37037 ft | 467 kts | 163° |
| 2026-05-05 10:31 | 44.05211 | 20.09053 | 37037 ft | 467 kts | 163° |
| 2026-05-05 10:31 | 43.99066 | 20.12035 | 37039 ft | 468 kts | 163° |
| 2026-05-05 10:32 | 43.92908 | 20.15006 | 37044 ft | 469 kts | 163° |
| 2026-05-05 10:32 | 43.86749 | 20.17982 | 37046 ft | 469 kts | 163° |
| 2026-05-05 10:33 | 43.80624 | 20.20932 | 37054 ft | 469 kts | 163° |
| 2026-05-05 10:33 | 43.74448 | 20.23901 | 37041 ft | 470 kts | 163° |
| 2026-05-05 10:34 | 43.68259 | 20.26867 | 37046 ft | 471 kts | 163° |
| 2026-05-05 10:34 | 43.62058 | 20.29840 | 37048 ft | 472 kts | 163° |
| 2026-05-05 10:35 | 43.55857 | 20.32805 | 37057 ft | 472 kts | 163° |
| 2026-05-05 10:35 | 43.49647 | 20.35761 | 37055 ft | 472 kts | 163° |
| 2026-05-05 10:36 | 43.43428 | 20.38720 | 37063 ft | 473 kts | 163° |
| 2026-05-05 10:36 | 43.37202 | 20.41681 | 37064 ft | 474 kts | 163° |
| 2026-05-05 10:37 | 43.30967 | 20.44638 | 37061 ft | 474 kts | 163° |
| 2026-05-05 10:37 | 43.24768 | 20.47560 | 37067 ft | 474 kts | 163° |
| 2026-05-05 10:38 | 43.18525 | 20.50503 | 37077 ft | 475 kts | 163° |
| 2026-05-05 10:38 | 43.12278 | 20.53448 | 37081 ft | 475 kts | 163° |
| 2026-05-05 10:39 | 43.06020 | 20.56388 | 37072 ft | 476 kts | 163° |
| 2026-05-05 10:39 | 42.99756 | 20.59325 | 37077 ft | 476 kts | 163° |
| 2026-05-05 10:40 | 42.93555 | 20.62531 | 37095 ft | 477 kts | 160° |
| 2026-05-05 10:40 | 42.87397 | 20.65898 | 37099 ft | 477 kts | 161° |
| 2026-05-05 10:41 | 42.81222 | 20.69225 | 37101 ft | 477 kts | 161° |
| 2026-05-05 10:41 | 42.75032 | 20.72486 | 37106 ft | 477 kts | 161° |
| 2026-05-05 10:42 | 42.65730 | 20.77318 | 37104 ft | 477 kts | 162° |
| 2026-05-05 10:43 | 42.59528 | 20.80549 | 37107 ft | 478 kts | 161° |
| 2026-05-05 10:43 | 42.53324 | 20.83798 | 37106 ft | 479 kts | 161° |
| 2026-05-05 10:44 | 42.47104 | 20.87039 | 37093 ft | 479 kts | 161° |
| 2026-05-05 10:44 | 42.40874 | 20.90276 | 37096 ft | 480 kts | 161° |
| 2026-05-05 10:45 | 42.34628 | 20.93501 | 37096 ft | 480 kts | 161° |
| 2026-05-05 10:45 | 42.28420 | 20.96693 | 37103 ft | 481 kts | 161° |
| 2026-05-05 10:46 | 42.22173 | 20.99923 | 37093 ft | 481 kts | 162° |
| 2026-05-05 10:46 | 42.15914 | 21.03159 | 37094 ft | 482 kts | 161° |
| 2026-05-05 10:47 | 42.09771 | 21.06813 | 37098 ft | 485 kts | 150° |
| 2026-05-05 10:47 | 42.04979 | 21.10861 | 37092 ft | 485 kts | 149° |
| 2026-05-05 10:48 | 41.99294 | 21.15671 | 37085 ft | 486 kts | 149° |
| 2026-05-05 10:48 | 41.93560 | 21.20510 | 37086 ft | 487 kts | 149° |
| 2026-05-05 10:49 | 41.87810 | 21.25343 | 37084 ft | 488 kts | 149° |
| 2026-05-05 10:49 | 41.82053 | 21.30165 | 37085 ft | 488 kts | 149° |
| 2026-05-05 10:50 | 41.76289 | 21.34987 | 37077 ft | 489 kts | 149° |
| 2026-05-05 10:50 | 41.70519 | 21.39814 | 37079 ft | 489 kts | 149° |
| 2026-05-05 10:51 | 41.64741 | 21.44646 | 37084 ft | 489 kts | 149° |
| 2026-05-05 10:51 | 41.58966 | 21.49449 | 37083 ft | 489 kts | 149° |
| 2026-05-05 10:52 | 41.53182 | 21.54236 | 37073 ft | 489 kts | 149° |
| 2026-05-05 10:52 | 41.47392 | 21.59030 | 37073 ft | 490 kts | 149° |
| 2026-05-05 10:53 | 41.41598 | 21.63826 | 37078 ft | 491 kts | 149° |
| 2026-05-05 10:53 | 41.35793 | 21.68615 | 37082 ft | 491 kts | 149° |
| 2026-05-05 10:54 | 41.29980 | 21.73397 | 37077 ft | 492 kts | 150° |
| 2026-05-05 10:54 | 41.24154 | 21.78178 | 37076 ft | 492 kts | 149° |
| 2026-05-05 10:55 | 41.18322 | 21.82962 | 37094 ft | 493 kts | 149° |
| 2026-05-05 10:55 | 41.12482 | 21.87738 | 37095 ft | 493 kts | 149° |
| 2026-05-05 10:56 | 41.06642 | 21.92518 | 37083 ft | 493 kts | 148° |
| 2026-05-05 10:56 | 41.00956 | 21.97623 | 37081 ft | 494 kts | 145° |
| 2026-05-05 10:57 | 40.95379 | 22.02966 | 37076 ft | 495 kts | 144° |
| 2026-05-05 10:57 | 40.89776 | 22.08264 | 37073 ft | 495 kts | 146° |
| 2026-05-05 10:58 | 40.84122 | 22.13466 | 37088 ft | 495 kts | 146° |
| 2026-05-05 10:58 | 40.78450 | 22.18634 | 37080 ft | 495 kts | 146° |
| 2026-05-05 10:59 | 40.72822 | 22.23767 | 37072 ft | 495 kts | 146° |
| 2026-05-05 10:59 | 40.67162 | 22.28947 | 37073 ft | 495 kts | 146° |
| 2026-05-05 11:00 | 40.61501 | 22.34119 | 37071 ft | 495 kts | 146° |
| 2026-05-05 11:00 | 40.55837 | 22.39275 | 37071 ft | 495 kts | 146° |
| 2026-05-05 11:01 | 40.50167 | 22.44432 | 37077 ft | 495 kts | 146° |
| 2026-05-05 11:01 | 40.44494 | 22.49574 | 37091 ft | 495 kts | 146° |
| 2026-05-05 11:02 | 40.38829 | 22.54708 | 37083 ft | 495 kts | 146° |
| 2026-05-05 11:02 | 40.33140 | 22.59793 | 37064 ft | 495 kts | 149° |
| 2026-05-05 11:03 | 40.27023 | 22.63886 | 37066 ft | 494 kts | 155° |
| 2026-05-05 11:03 | 40.20841 | 22.67822 | 37070 ft | 494 kts | 155° |
| 2026-05-05 11:04 | 40.14654 | 22.71760 | 37068 ft | 495 kts | 155° |
| 2026-05-05 11:04 | 40.08468 | 22.75698 | 37056 ft | 495 kts | 155° |
| 2026-05-05 11:05 | 40.02268 | 22.79625 | 37090 ft | 496 kts | 155° |
| 2026-05-05 11:05 | 39.96063 | 22.83555 | 37088 ft | 496 kts | 155° |
| 2026-05-05 11:06 | 39.89852 | 22.87482 | 37079 ft | 496 kts | 155° |
| 2026-05-05 11:06 | 39.83634 | 22.91389 | 37059 ft | 496 kts | 155° |
| 2026-05-05 11:07 | 39.77415 | 22.95305 | 37068 ft | 497 kts | 155° |
| 2026-05-05 11:07 | 39.71193 | 22.99221 | 37069 ft | 497 kts | 155° |
| 2026-05-05 11:08 | 39.64960 | 23.03132 | 37071 ft | 497 kts | 155° |
| 2026-05-05 11:08 | 39.58728 | 23.07033 | 37068 ft | 498 kts | 155° |
| 2026-05-05 11:09 | 39.52489 | 23.10930 | 37098 ft | 498 kts | 155° |
| 2026-05-05 11:09 | 39.46285 | 23.14779 | 37094 ft | 498 kts | 155° |
| 2026-05-05 11:10 | 39.40043 | 23.18655 | 37090 ft | 498 kts | 155° |
| 2026-05-05 11:10 | 39.33799 | 23.22529 | 37073 ft | 498 kts | 155° |
| 2026-05-05 11:11 | 39.27550 | 23.26398 | 37071 ft | 498 kts | 155° |
| 2026-05-05 11:11 | 39.21288 | 23.30273 | 37077 ft | 499 kts | 156° |
| 2026-05-05 11:12 | 39.15028 | 23.34129 | 37080 ft | 499 kts | 156° |
| 2026-05-05 11:12 | 39.08760 | 23.37980 | 37075 ft | 499 kts | 156° |
| 2026-05-05 11:13 | 39.02488 | 23.41831 | 37079 ft | 500 kts | 156° |
| 2026-05-05 11:13 | 38.96216 | 23.45683 | 37094 ft | 499 kts | 155° |
| 2026-05-05 11:14 | 38.89944 | 23.49525 | 37079 ft | 499 kts | 156° |
| 2026-05-05 11:14 | 38.83669 | 23.53349 | 37084 ft | 499 kts | 156° |
| 2026-05-05 11:15 | 38.77393 | 23.57168 | 37094 ft | 500 kts | 156° |
| 2026-05-05 11:15 | 38.71109 | 23.60996 | 37091 ft | 500 kts | 156° |
| 2026-05-05 11:16 | 38.64826 | 23.64815 | 37070 ft | 500 kts | 156° |
| 2026-05-05 11:16 | 38.58535 | 23.68620 | 37077 ft | 500 kts | 156° |
| 2026-05-05 11:17 | 38.52242 | 23.72416 | 37083 ft | 500 kts | 156° |
| 2026-05-05 11:17 | 38.45949 | 23.76210 | 37114 ft | 500 kts | 156° |
| 2026-05-05 11:18 | 38.39664 | 23.80003 | 37091 ft | 499 kts | 156° |
| 2026-05-05 11:18 | 38.33389 | 23.83789 | 37093 ft | 499 kts | 156° |
| 2026-05-05 11:19 | 38.27110 | 23.87561 | 37100 ft | 499 kts | 156° |
| 2026-05-05 11:19 | 38.20828 | 23.91316 | 37098 ft | 499 kts | 156° |
| 2026-05-05 11:20 | 38.14546 | 23.95067 | 37094 ft | 499 kts | 156° |
| 2026-05-05 11:20 | 38.08262 | 23.98812 | 37096 ft | 499 kts | 156° |
| 2026-05-05 11:21 | 38.01976 | 24.02551 | 37104 ft | 499 kts | 156° |
| 2026-05-05 11:21 | 37.95691 | 24.06287 | 37115 ft | 499 kts | 156° |
| 2026-05-05 11:22 | 37.89403 | 24.10009 | 37121 ft | 498 kts | 156° |
| 2026-05-05 11:22 | 37.83127 | 24.13726 | 37120 ft | 498 kts | 156° |
| 2026-05-05 11:23 | 37.76853 | 24.17441 | 37114 ft | 498 kts | 156° |
| 2026-05-05 11:23 | 37.70579 | 24.21142 | 37115 ft | 498 kts | 156° |
| 2026-05-05 11:24 | 37.64342 | 24.24809 | 37091 ft | 498 kts | 156° |
| 2026-05-05 11:24 | 37.58018 | 24.28522 | 37098 ft | 498 kts | 156° |
| 2026-05-05 11:25 | 37.52015 | 24.32768 | 37103 ft | 499 kts | 149° |
| 2026-05-05 11:25 | 37.46119 | 24.37412 | 37106 ft | 500 kts | 149° |
| 2026-05-05 11:26 | 37.40229 | 24.42053 | 37112 ft | 500 kts | 149° |
| 2026-05-05 11:26 | 37.34331 | 24.46682 | 37110 ft | 500 kts | 149° |
| 2026-05-05 11:27 | 37.28427 | 24.51294 | 37114 ft | 500 kts | 149° |
| 2026-05-05 11:27 | 37.22516 | 24.55904 | 37115 ft | 500 kts | 149° |
| 2026-05-05 11:28 | 37.16602 | 24.60508 | 37111 ft | 500 kts | 149° |
| 2026-05-05 11:28 | 37.10689 | 24.65112 | 37100 ft | 501 kts | 149° |
| 2026-05-05 11:29 | 37.04769 | 24.69708 | 37008 ft | 502 kts | 149° |
| 2026-05-05 11:29 | 37.01801 | 24.72007 | 36741 ft | 501 kts | 149° |
| 2026-05-05 11:29 | 36.98833 | 24.74300 | 36483 ft | 501 kts | 149° |
| 2026-05-05 11:29 | 36.95866 | 24.76590 | 36229 ft | 501 kts | 149° |
| 2026-05-05 11:30 | 36.92899 | 24.78884 | 35977 ft | 502 kts | 149° |
| 2026-05-05 11:30 | 36.89932 | 24.81180 | 35728 ft | 502 kts | 149° |
| 2026-05-05 11:30 | 36.86967 | 24.83478 | 35461 ft | 502 kts | 149° |
| 2026-05-05 11:30 | 36.83993 | 24.85780 | 34879 ft | 505 kts | 149° |
| 2026-05-05 11:31 | 36.80991 | 24.88100 | 33952 ft | 509 kts | 149° |
| 2026-05-05 11:31 | 36.78011 | 24.90401 | 33002 ft | 511 kts | 149° |
| 2026-05-05 11:31 | 36.74983 | 24.92740 | 32163 ft | 511 kts | 149° |
| 2026-05-05 11:31 | 36.71986 | 24.95053 | 31655 ft | 503 kts | 149° |
| 2026-05-05 11:32 | 36.69022 | 24.97340 | 31039 ft | 499 kts | 149° |
| 2026-05-05 11:32 | 36.66081 | 24.99604 | 30444 ft | 495 kts | 149° |
| 2026-05-05 11:32 | 36.63160 | 25.01844 | 29826 ft | 491 kts | 149° |
| 2026-05-05 11:32 | 36.60264 | 25.04056 | 29217 ft | 485 kts | 149° |
| 2026-05-05 11:33 | 36.57402 | 25.06239 | 28654 ft | 480 kts | 149° |
| 2026-05-05 11:33 | 36.54573 | 25.08397 | 28088 ft | 475 kts | 149° |
| 2026-05-05 11:33 | 36.51771 | 25.10537 | 27528 ft | 470 kts | 149° |
| 2026-05-05 11:33 | 36.49000 | 25.12656 | 26977 ft | 466 kts | 149° |
| 2026-05-05 11:34 | 36.46251 | 25.14755 | 26425 ft | 462 kts | 149° |
| 2026-05-05 11:34 | 36.43528 | 25.16835 | 25895 ft | 457 kts | 149° |
| 2026-05-05 11:34 | 36.40956 | 25.18798 | 25399 ft | 454 kts | 149° |
| 2026-05-05 11:34 | 36.38273 | 25.20841 | 24890 ft | 450 kts | 149° |
| 2026-05-05 11:35 | 36.35616 | 25.22859 | 24379 ft | 446 kts | 149° |
| 2026-05-05 11:35 | 36.32980 | 25.24859 | 23900 ft | 442 kts | 149° |
| 2026-05-05 11:35 | 36.30362 | 25.26846 | 23377 ft | 439 kts | 149° |
| 2026-05-05 11:35 | 36.28608 | 25.28177 | 23055 ft | 436 kts | 149° |
| 2026-05-05 11:36 | 36.26073 | 25.30101 | 22598 ft | 431 kts | 149° |
| 2026-05-05 11:36 | 36.23493 | 25.32056 | 22119 ft | 427 kts | 149° |
| 2026-05-05 11:36 | 36.21003 | 25.33938 | 21673 ft | 423 kts | 149° |
| 2026-05-05 11:36 | 36.18498 | 25.35831 | 21189 ft | 420 kts | 149° |
| 2026-05-05 11:37 | 36.16010 | 25.37708 | 20720 ft | 417 kts | 149° |
| 2026-05-05 11:37 | 36.13538 | 25.39560 | 20235 ft | 414 kts | 151° |
| 2026-05-05 11:37 | 36.10959 | 25.41041 | 19753 ft | 410 kts | 162° |
| 2026-05-05 11:37 | 36.08259 | 25.42139 | 19268 ft | 408 kts | 164° |
| 2026-05-05 11:38 | 36.05569 | 25.43221 | 18772 ft | 406 kts | 163° |
| 2026-05-05 11:38 | 36.02888 | 25.44301 | 18268 ft | 405 kts | 163° |
| 2026-05-05 11:38 | 36.00216 | 25.45377 | 17755 ft | 402 kts | 163° |
| 2026-05-05 11:38 | 35.97568 | 25.46445 | 17268 ft | 399 kts | 163° |
| 2026-05-05 11:39 | 35.94939 | 25.47504 | 16798 ft | 396 kts | 163° |
| 2026-05-05 11:39 | 35.92326 | 25.48552 | 16324 ft | 393 kts | 163° |
| 2026-05-05 11:39 | 35.89735 | 25.49592 | 15854 ft | 391 kts | 163° |
| 2026-05-05 11:39 | 35.87160 | 25.50625 | 15392 ft | 388 kts | 162° |
| 2026-05-05 11:40 | 35.84600 | 25.51652 | 14923 ft | 386 kts | 162° |
| 2026-05-05 11:40 | 35.82053 | 25.52674 | 14468 ft | 384 kts | 162° |
| 2026-05-05 11:40 | 35.79521 | 25.53687 | 14005 ft | 382 kts | 162° |
| 2026-05-05 11:40 | 35.76998 | 25.54696 | 13498 ft | 380 kts | 162° |
| 2026-05-05 11:41 | 35.74496 | 25.55693 | 13029 ft | 376 kts | 162° |
| 2026-05-05 11:41 | 35.72019 | 25.56682 | 12556 ft | 373 kts | 162° |
| 2026-05-05 11:41 | 35.69631 | 25.57880 | 12077 ft | 369 kts | 151° |
| 2026-05-05 11:41 | 35.67516 | 25.59631 | 11612 ft | 365 kts | 140° |
| 2026-05-05 11:42 | 35.65579 | 25.61555 | 11147 ft | 362 kts | 140° |
| 2026-05-05 11:42 | 35.63626 | 25.63482 | 10676 ft | 359 kts | 140° |
| 2026-05-05 11:42 | 35.61617 | 25.65256 | 10398 ft | 351 kts | 153° |
| 2026-05-05 11:42 | 35.59314 | 25.65939 | 10284 ft | 336 kts | 182° |
| 2026-05-05 11:43 | 35.57135 | 25.65252 | 10159 ft | 317 kts | 213° |
| 2026-05-05 11:43 | 35.55562 | 25.63499 | 9910 ft | 301 kts | 239° |
| 2026-05-05 11:43 | 35.54544 | 25.61275 | 9506 ft | 297 kts | 246° |
| 2026-05-05 11:43 | 35.53594 | 25.59045 | 8940 ft | 293 kts | 246° |
| 2026-05-05 11:44 | 35.52644 | 25.56804 | 8327 ft | 296 kts | 246° |
| 2026-05-05 11:44 | 35.51696 | 25.54580 | 7787 ft | 292 kts | 246° |
| 2026-05-05 11:44 | 35.50749 | 25.52381 | 7296 ft | 292 kts | 245° |
| 2026-05-05 11:44 | 35.49788 | 25.50165 | 6795 ft | 295 kts | 245° |
| 2026-05-05 11:45 | 35.48816 | 25.47933 | 6313 ft | 297 kts | 245° |
| 2026-05-05 11:45 | 35.47850 | 25.45723 | 5997 ft | 292 kts | 245° |
| 2026-05-05 11:45 | 35.46896 | 25.43545 | 5568 ft | 286 kts | 245° |
| 2026-05-05 11:45 | 35.45725 | 25.41627 | 5165 ft | 278 kts | 219° |
| 2026-05-05 11:46 | 35.44009 | 25.40703 | 5024 ft | 267 kts | 186° |
| 2026-05-05 11:46 | 35.42239 | 25.40992 | 4885 ft | 252 kts | 153° |
| 2026-05-05 11:46 | 35.40818 | 25.42121 | 4749 ft | 238 kts | 144° |
| 2026-05-05 11:46 | 35.39429 | 25.43149 | 4629 ft | 228 kts | 149° |
| 2026-05-05 11:47 | 35.38008 | 25.43904 | 4501 ft | 220 kts | 173° |
| 2026-05-05 11:47 | 35.36572 | 25.43718 | 4454 ft | 200 kts | 205° |
| 2026-05-05 11:47 | 35.35476 | 25.42767 | 4178 ft | 191 kts | 235° |
| 2026-05-05 11:47 | 35.34858 | 25.41374 | 3905 ft | 184 kts | 249° |
| 2026-05-05 11:48 | 35.33785 | 25.38583 | 3398 ft | 178 kts | 249° |
| 2026-05-05 11:48 | 35.33258 | 25.37218 | 3155 ft | 178 kts | 249° |
| 2026-05-05 11:48 | 35.32843 | 25.35813 | 2906 ft | 172 kts | 265° |
| 2026-05-05 11:49 | 35.32821 | 25.34425 | 2697 ft | 155 kts | 279° |
| 2026-05-05 11:49 | 35.32914 | 25.33167 | 2527 ft | 146 kts | 279° |
| 2026-05-05 11:49 | 35.32995 | 25.31954 | 2350 ft | 139 kts | 279° |
| 2026-05-05 11:49 | 35.33074 | 25.30793 | 2182 ft | 136 kts | 279° |
| 2026-05-05 11:50 | 35.33155 | 25.29640 | 2010 ft | 136 kts | 277° |
| 2026-05-05 11:50 | 35.33234 | 25.28499 | 1819 ft | 133 kts | 280° |
| 2026-05-05 11:50 | 35.33312 | 25.27367 | 1613 ft | 133 kts | 280° |
| 2026-05-05 11:50 | 35.33392 | 25.26239 | 1398 ft | 134 kts | 279° |
| 2026-05-05 11:51 | 35.33471 | 25.25113 | 1198 ft | 134 kts | 278° |
| 2026-05-05 11:51 | 35.33546 | 25.23983 | 1003 ft | 133 kts | 280° |
| 2026-05-05 11:51 | 35.33621 | 25.22857 | 776 ft | 132 kts | 281° |
| 2026-05-05 11:51 | 35.33696 | 25.21737 | 603 ft | 132 kts | 279° |
| 2026-05-05 11:52 | 35.33788 | 25.20626 | 408 ft | 131 kts | 278° |
| 2026-05-05 11:52 | 35.33870 | 25.19510 | 243 ft | 132 kts | 279° |
| 2026-05-05 11:52 | 35.33950 | 25.18405 | 113 ft | 124 kts | 275° |
| 2026-05-05 11:52 | 35.34010 | 25.17525 | 90 ft | 80 kts | 275° |
| 2026-05-05 11:53 | 35.34042 | 25.17084 | 82 ft | 25 kts | 275° |
| 2026-05-05 11:53 | 35.34054 | 25.16879 | 74 ft | 14 kts | 274° |
| 2026-05-05 11:53 | 35.34010 | 25.16872 | 69 ft | 8 kts | 126° |
| 2026-05-05 11:53 | 35.33980 | 25.16924 | 75 ft | 9 kts | 125° |
| 2026-05-05 11:54 | 35.33948 | 25.16990 | 71 ft | 8 kts | 109° |
| 2026-05-05 11:54 | 35.33941 | 25.17074 | 77 ft | 16 kts | 95° |
| 2026-05-05 11:54 | 35.33936 | 25.17196 | 81 ft | 12 kts | 92° |
| 2026-05-05 11:54 | 35.33927 | 25.17295 | 83 ft | 14 kts | 96° |
| 2026-05-05 11:55 | 35.33919 | 25.17400 | 85 ft | 11 kts | 95° |
| 2026-05-05 11:55 | 35.33913 | 25.17479 | 87 ft | 8 kts | 103° |
| 2026-05-05 11:55 | 35.33869 | 25.17502 | 90 ft | 7 kts | 180° |
| 2026-05-05 11:55 | 35.33820 | 25.17498 | 88 ft | 7 kts | 185° |
| 2026-05-05 11:56 | 35.33803 | 25.17459 | 86 ft | 7 kts | 277° |
| 2026-05-05 11:56 | 35.33805 | 25.17424 | 85 ft | 0 kts | 274° |